createdAt,value
2023-05-16T00:00:28.808Z,100.00
2023-05-16T00:01:30.546Z,100.00
2023-05-16T00:02:32.480Z,100.00
2023-05-16T00:03:34.495Z,100.00
2023-05-16T00:04:36.698Z,100.00
2023-05-16T00:05:38.836Z,100.00
2023-05-16T00:06:40.668Z,100.00
2023-05-16T00:07:43.983Z,100.00
2023-05-16T00:08:45.603Z,100.00
2023-05-16T00:09:47.367Z,100.00
2023-05-16T00:10:49.012Z,100.00
2023-05-16T00:11:50.950Z,100.00
2023-05-16T00:12:52.590Z,100.00
2023-05-16T00:13:54.412Z,100.00
2023-05-16T00:14:57.072Z,100.00
2023-05-16T00:16:02.644Z,100.00
2023-05-16T00:17:11.501Z,100.00
2023-05-16T00:18:16.991Z,100.00
2023-05-16T00:19:18.848Z,100.00
2023-05-16T00:20:23.571Z,100.00
2023-05-16T00:21:25.529Z,100.00
2023-05-16T00:22:27.412Z,100.00
2023-05-16T00:23:29.082Z,100.00
2023-05-16T00:24:30.797Z,100.00
2023-05-16T00:25:32.398Z,100.00
2023-05-16T00:26:34.044Z,100.00
2023-05-16T00:27:36.419Z,100.00
2023-05-16T00:28:38.018Z,100.00
2023-05-16T00:29:39.620Z,100.00
2023-05-16T00:30:41.399Z,100.00
2023-05-16T00:31:43.060Z,100.00
2023-05-16T00:32:46.173Z,100.00
2023-05-16T00:33:48.035Z,100.00
2023-05-16T00:34:49.611Z,100.00
2023-05-16T00:35:51.683Z,100.00
2023-05-16T00:36:53.905Z,100.00
2023-05-16T00:37:56.326Z,100.00
2023-05-16T00:38:57.901Z,100.00
2023-05-16T00:39:59.496Z,100.00
2023-05-16T00:41:01.169Z,100.00
2023-05-16T00:42:03.955Z,100.00
2023-05-16T00:43:06.329Z,100.00
2023-05-16T00:44:07.972Z,100.00
2023-05-16T00:45:10.419Z,100.00
2023-05-16T00:46:12.244Z,100.00
2023-05-16T00:47:14.672Z,100.00
2023-05-16T00:48:16.442Z,100.00
2023-05-16T00:49:18.334Z,100.00
2023-05-16T00:50:20.035Z,100.00
2023-05-16T00:51:21.735Z,100.00
2023-05-16T00:52:23.709Z,100.00
2023-05-16T00:53:25.642Z,100.00
2023-05-16T00:54:29.198Z,100.00
2023-05-16T00:55:31.308Z,100.00
2023-05-16T00:56:33.635Z,100.00
2023-05-16T00:57:35.687Z,100.00
2023-05-16T00:58:37.718Z,100.00
2023-05-16T00:59:40.221Z,100.00
2023-05-16T01:00:41.803Z,100.00
2023-05-16T01:01:46.644Z,100.00
2023-05-16T01:02:48.494Z,100.00
2023-05-16T01:03:51.728Z,100.00
2023-05-16T01:04:53.338Z,100.00
2023-05-16T01:05:55.511Z,100.00
2023-05-16T01:06:57.221Z,100.00
2023-05-16T01:07:58.892Z,100.00
2023-05-16T01:09:00.603Z,100.00
2023-05-16T01:10:03.597Z,100.00
2023-05-16T01:11:23.704Z,100.00
2023-05-16T01:12:33.584Z,100.00
2023-05-16T01:14:07.078Z,100.00
2023-05-16T01:15:11.364Z,100.00
2023-05-16T01:16:18.936Z,100.00
2023-05-16T01:17:25.261Z,100.00
2023-05-16T01:18:37.526Z,100.00
2023-05-16T01:19:41.962Z,100.00
2023-05-16T01:21:03.957Z,100.00
2023-05-16T01:22:32.143Z,100.00
2023-05-16T01:23:43.211Z,100.00
2023-05-16T01:25:29.684Z,100.00
2023-05-16T01:26:32.646Z,100.00
2023-05-16T01:27:35.785Z,100.00
2023-05-16T01:28:38.240Z,100.00
2023-05-16T01:29:39.791Z,100.00
2023-05-16T01:30:41.663Z,100.00
2023-05-16T01:31:43.380Z,100.00
2023-05-16T01:32:45.422Z,100.00
2023-05-16T01:33:47.622Z,100.00
2023-05-16T01:34:52.242Z,100.00
2023-05-16T01:35:58.261Z,100.00
2023-05-16T01:37:21.880Z,100.00
2023-05-16T01:38:27.035Z,100.00
2023-05-16T01:39:55.679Z,100.00
2023-05-16T01:41:24.198Z,100.00
2023-05-16T01:42:29.185Z,100.00
2023-05-16T01:43:45.405Z,100.00
2023-05-16T01:45:00.549Z,100.00
2023-05-16T01:46:10.942Z,100.00
2023-05-16T01:47:14.030Z,100.00
2023-05-16T01:48:22.880Z,100.00
2023-05-16T01:49:36.191Z,100.00
2023-05-16T01:50:42.372Z,100.00
2023-05-16T01:51:51.764Z,100.00
2023-05-16T01:53:17.026Z,100.00
2023-05-16T01:54:20.475Z,100.00
2023-05-16T01:55:24.270Z,100.00
2023-05-16T01:56:26.812Z,100.00
2023-05-16T01:57:28.275Z,100.00
2023-05-16T01:58:32.299Z,100.00
2023-05-16T01:59:34.123Z,100.00
2023-05-16T02:00:35.954Z,100.00
2023-05-16T02:01:38.193Z,100.00
2023-05-16T02:02:39.930Z,100.00
2023-05-16T02:03:41.639Z,100.00
2023-05-16T02:04:43.436Z,100.00
2023-05-16T02:05:45.058Z,100.00
2023-05-16T02:06:48.889Z,100.00
2023-05-16T02:07:51.768Z,100.00
2023-05-16T02:08:53.351Z,100.00
2023-05-16T02:09:54.918Z,100.00
2023-05-16T02:10:56.559Z,100.00
2023-05-16T02:11:58.127Z,100.00
2023-05-16T02:12:59.791Z,100.00
2023-05-16T02:14:01.377Z,100.00
2023-05-16T02:15:03.019Z,100.00
2023-05-16T02:16:04.741Z,100.00
2023-05-16T02:17:06.483Z,100.00
2023-05-16T02:18:09.269Z,100.00
2023-05-16T02:19:11.209Z,100.00
2023-05-16T02:20:13.827Z,100.00
2023-05-16T02:21:15.489Z,100.00
2023-05-16T02:22:17.103Z,100.00
2023-05-16T02:23:18.686Z,100.00
2023-05-16T02:24:20.598Z,100.00
2023-05-16T02:25:22.181Z,100.00
2023-05-16T02:26:23.726Z,100.00
2023-05-16T02:27:25.508Z,100.00
2023-05-16T02:28:27.081Z,100.00
2023-05-16T02:29:28.674Z,100.00
2023-05-16T02:30:30.276Z,100.00
2023-05-16T02:31:33.456Z,100.00
2023-05-16T02:32:35.398Z,100.00
2023-05-16T02:33:36.990Z,100.00
2023-05-16T02:34:38.582Z,100.00
2023-05-16T02:35:40.222Z,100.00
2023-05-16T02:36:41.781Z,100.00
2023-05-16T02:37:44.154Z,100.00
2023-05-16T02:38:45.834Z,100.00
2023-05-16T02:39:47.453Z,100.00
2023-05-16T02:40:49.375Z,100.00
2023-05-16T02:41:50.985Z,100.00
2023-05-16T02:42:52.662Z,100.00
2023-05-16T02:43:54.224Z,100.00
2023-05-16T02:44:55.923Z,100.00
2023-05-16T02:45:58.986Z,100.00
2023-05-16T02:47:00.730Z,100.00
2023-05-16T02:48:02.365Z,100.00
2023-05-16T02:49:03.989Z,100.00
2023-05-16T02:50:06.075Z,100.00
2023-05-16T02:51:09.132Z,100.00
2023-05-16T02:52:11.818Z,100.00
2023-05-16T02:53:13.755Z,100.00
2023-05-16T02:54:15.562Z,100.00
2023-05-16T02:55:22.318Z,100.00
2023-05-16T02:56:24.385Z,100.00
2023-05-16T02:57:26.224Z,100.00
2023-05-16T02:58:27.817Z,100.00
2023-05-16T02:59:29.430Z,100.00
2023-05-16T03:00:31.011Z,100.00
2023-05-16T03:01:32.713Z,100.00
2023-05-16T03:02:34.517Z,100.00
2023-05-16T03:03:37.544Z,100.00
2023-05-16T03:04:39.290Z,100.00
2023-05-16T03:05:40.890Z,100.00
2023-05-16T03:06:42.609Z,100.00
2023-05-16T03:07:44.140Z,100.00
2023-05-16T03:08:45.774Z,100.00
2023-05-16T03:09:47.349Z,100.00
2023-05-16T03:10:48.936Z,100.00
2023-05-16T03:11:50.649Z,100.00
2023-05-16T03:12:54.536Z,100.00
2023-05-16T03:13:56.946Z,100.00
2023-05-16T03:14:58.991Z,100.00
2023-05-16T03:16:00.814Z,100.00
2023-05-16T03:17:02.439Z,100.00
2023-05-16T03:18:04.270Z,100.00
2023-05-16T03:19:06.020Z,100.00
2023-05-16T03:20:09.406Z,100.00
2023-05-16T03:21:11.022Z,100.00
2023-05-16T03:22:12.720Z,100.00
2023-05-16T03:23:18.054Z,100.00
2023-05-16T03:24:21.708Z,100.00
2023-05-16T03:25:23.386Z,100.00
2023-05-16T03:26:25.801Z,100.00
2023-05-16T03:27:27.848Z,100.00
2023-05-16T03:28:29.407Z,100.00
2023-05-16T03:29:31.201Z,100.00
2023-05-16T03:30:32.904Z,100.00
2023-05-16T03:31:34.667Z,100.00
2023-05-16T03:32:38.010Z,100.00
2023-05-16T03:33:39.620Z,100.00
2023-05-16T03:34:41.215Z,100.00
2023-05-16T03:35:43.596Z,100.00
2023-05-16T03:36:45.239Z,100.00
2023-05-16T03:37:46.859Z,100.00
2023-05-16T03:38:48.816Z,100.00
2023-05-16T03:39:50.943Z,100.00
2023-05-16T03:40:53.195Z,100.00
2023-05-16T03:41:57.237Z,100.00
2023-05-16T03:42:58.864Z,100.00
2023-05-16T03:44:00.702Z,100.00
2023-05-16T03:45:02.375Z,100.00
2023-05-16T03:46:04.169Z,100.00
2023-05-16T03:47:06.364Z,100.00
2023-05-16T03:48:09.323Z,100.00
2023-05-16T03:49:10.953Z,100.00
2023-05-16T03:50:12.820Z,100.00
2023-05-16T03:51:14.398Z,100.00
2023-05-16T03:52:16.061Z,100.00
2023-05-16T03:53:17.754Z,100.00
2023-05-16T03:54:19.335Z,100.00
2023-05-16T03:55:21.520Z,100.00
2023-05-16T03:56:23.144Z,100.00
2023-05-16T03:57:24.782Z,100.00
2023-05-16T03:58:26.412Z,100.00
2023-05-16T03:59:27.986Z,100.00
2023-05-16T04:00:29.736Z,100.00
2023-05-16T04:01:31.362Z,100.00
2023-05-16T04:02:32.954Z,100.00
2023-05-16T04:03:34.673Z,100.00
2023-05-16T04:04:36.349Z,100.00
2023-05-16T04:05:37.985Z,100.00
2023-05-16T04:06:39.704Z,100.00
2023-05-16T04:07:41.502Z,100.00
2023-05-16T04:08:44.903Z,100.00
2023-05-16T04:09:46.498Z,100.00
2023-05-16T04:10:48.081Z,100.00
2023-05-16T04:11:49.736Z,100.00
2023-05-16T04:12:51.583Z,100.00
2023-05-16T04:13:54.122Z,100.00
2023-05-16T04:14:55.644Z,100.00
2023-05-16T04:15:57.237Z,100.00
2023-05-16T04:16:58.863Z,100.00
2023-05-16T04:18:00.462Z,100.00
2023-05-16T04:19:02.211Z,100.00
2023-05-16T04:20:04.887Z,100.00
2023-05-16T04:21:06.536Z,100.00
2023-05-16T04:22:08.217Z,100.00
2023-05-16T04:23:13.280Z,100.00
2023-05-16T04:24:14.954Z,100.00
2023-05-16T04:25:17.180Z,100.00
2023-05-16T04:26:19.021Z,100.00
2023-05-16T04:27:20.654Z,100.00
2023-05-16T04:28:22.403Z,100.00
2023-05-16T04:29:24.050Z,100.00
2023-05-16T04:30:25.874Z,100.00
2023-05-16T04:31:27.657Z,100.00
2023-05-16T04:32:29.281Z,100.00
2023-05-16T04:33:30.930Z,100.00
2023-05-16T04:34:33.936Z,100.00
2023-05-16T04:35:35.604Z,100.00
2023-05-16T04:36:37.208Z,100.00
2023-05-16T04:37:38.793Z,100.00
2023-05-16T04:38:40.483Z,100.00
2023-05-16T04:39:42.653Z,100.00
2023-05-16T04:40:44.219Z,100.00
2023-05-16T04:41:46.001Z,99.79
2023-05-16T04:42:47.642Z,100.00
2023-05-16T04:43:49.315Z,99.70
2023-05-16T04:44:50.848Z,100.00
2023-05-16T04:45:54.078Z,100.00
2023-05-16T04:46:55.833Z,100.00
2023-05-16T04:47:57.704Z,100.00
2023-05-16T04:48:59.304Z,100.00
2023-05-16T04:50:01.062Z,100.00
2023-05-16T04:51:02.658Z,100.00
2023-05-16T04:52:04.673Z,100.00
2023-05-16T04:53:06.257Z,100.00
2023-05-16T04:54:08.812Z,99.71
2023-05-16T04:55:10.654Z,99.96
2023-05-16T04:56:12.258Z,100.00
2023-05-16T04:57:13.889Z,100.00
2023-05-16T04:58:15.934Z,100.00
2023-05-16T04:59:17.506Z,100.00
2023-05-16T05:00:19.408Z,100.00
2023-05-16T05:01:21.031Z,100.00
2023-05-16T05:02:22.755Z,99.58
2023-05-16T05:03:24.388Z,98.32
2023-05-16T05:04:26.095Z,99.19
2023-05-16T05:05:28.003Z,99.76
2023-05-16T05:06:29.889Z,100.00
2023-05-16T05:07:32.451Z,98.94
2023-05-16T05:08:34.133Z,100.00
2023-05-16T05:09:35.788Z,99.31
2023-05-16T05:10:37.374Z,100.00
2023-05-16T05:11:38.979Z,100.00
2023-05-16T05:12:40.696Z,99.69
2023-05-16T05:13:42.270Z,99.08
2023-05-16T05:14:43.946Z,99.31
2023-05-16T05:15:45.740Z,99.23
2023-05-16T05:16:47.395Z,98.10
2023-05-16T05:17:49.201Z,97.11
2023-05-16T05:18:51.015Z,96.59
2023-05-16T05:19:52.714Z,98.82
2023-05-16T05:20:54.304Z,97.70
2023-05-16T05:21:55.865Z,98.35
2023-05-16T05:22:57.416Z,96.64
2023-05-16T05:23:59.040Z,96.43
2023-05-16T05:25:00.689Z,96.78
2023-05-16T05:26:02.304Z,99.20
2023-05-16T05:27:03.966Z,97.32
2023-05-16T05:28:06.098Z,96.41
2023-05-16T05:29:07.886Z,96.20
2023-05-16T05:30:09.899Z,96.27
2023-05-16T05:31:11.524Z,96.75
2023-05-16T05:32:13.201Z,96.10
2023-05-16T05:33:17.753Z,96.00
2023-05-16T05:34:19.331Z,96.06
2023-05-16T05:35:21.280Z,97.07
2023-05-16T05:36:22.883Z,96.37
2023-05-16T05:37:25.392Z,95.21
2023-05-16T05:38:26.887Z,94.61
2023-05-16T05:39:28.433Z,93.91
2023-05-16T05:40:30.068Z,93.66
2023-05-16T05:41:31.735Z,94.15
2023-05-16T05:42:33.911Z,91.63
2023-05-16T05:43:35.605Z,92.47
2023-05-16T05:44:37.829Z,94.12
2023-05-16T05:45:39.501Z,93.29
2023-05-16T05:46:41.378Z,91.09
2023-05-16T05:47:43.457Z,91.38
2023-05-16T05:48:45.112Z,91.76
2023-05-16T05:49:46.754Z,91.30
2023-05-16T05:50:48.557Z,92.92
2023-05-16T05:51:52.236Z,93.09
2023-05-16T05:52:54.756Z,94.49
2023-05-16T05:53:56.235Z,92.83
2023-05-16T05:54:59.450Z,92.81
2023-05-16T05:56:01.050Z,92.29
2023-05-16T05:57:02.660Z,92.36
2023-05-16T05:58:05.675Z,91.58
2023-05-16T05:59:08.791Z,92.36
2023-05-16T06:00:11.543Z,92.66
2023-05-16T06:01:13.313Z,91.36
2023-05-16T06:02:15.150Z,91.59
2023-05-16T06:03:17.061Z,90.86
2023-05-16T06:04:22.070Z,91.50
2023-05-16T06:05:23.979Z,91.33
2023-05-16T06:06:25.753Z,91.59
2023-05-16T06:07:27.321Z,90.29
2023-05-16T06:08:28.904Z,90.90
2023-05-16T06:09:30.891Z,91.04
2023-05-16T06:10:32.484Z,91.22
2023-05-16T06:11:34.057Z,92.85
2023-05-16T06:12:35.806Z,91.31
2023-05-16T06:13:37.413Z,91.91
2023-05-16T06:14:39.512Z,91.60
2023-05-16T06:15:41.314Z,91.26
2023-05-16T06:16:42.990Z,91.14
2023-05-16T06:17:44.637Z,91.13
2023-05-16T06:18:46.492Z,90.51
2023-05-16T06:19:48.086Z,91.37
2023-05-16T06:20:50.518Z,91.12
2023-05-16T06:21:52.151Z,90.73
2023-05-16T06:22:53.730Z,89.53
2023-05-16T06:23:55.421Z,90.07
2023-05-16T06:24:56.973Z,89.36
2023-05-16T06:25:58.535Z,89.31
2023-05-16T06:27:00.091Z,88.51
2023-05-16T06:28:01.768Z,88.82
2023-05-16T06:29:03.366Z,89.23
2023-05-16T06:30:05.674Z,90.55
2023-05-16T06:31:07.278Z,89.77
2023-05-16T06:32:10.406Z,89.30
2023-05-16T06:33:15.708Z,90.86
2023-05-16T06:34:17.288Z,89.22
2023-05-16T06:35:19.114Z,89.12
2023-05-16T06:36:20.809Z,87.22
2023-05-16T06:37:23.538Z,87.63
2023-05-16T06:38:25.136Z,86.95
2023-05-16T06:39:26.711Z,87.88
2023-05-16T06:40:28.429Z,87.39
2023-05-16T06:41:30.053Z,91.44
2023-05-16T06:42:31.684Z,89.70
2023-05-16T06:43:33.324Z,88.45
2023-05-16T06:44:34.896Z,88.56
2023-05-16T06:45:36.523Z,92.33
2023-05-16T06:46:38.307Z,87.73
2023-05-16T06:47:40.135Z,89.05
2023-05-16T06:48:41.765Z,87.55
2023-05-16T06:49:43.335Z,86.75
2023-05-16T06:50:52.160Z,85.91
2023-05-16T06:51:53.763Z,85.44
2023-05-16T06:52:55.384Z,88.73
2023-05-16T06:53:57.575Z,90.78
2023-05-16T06:54:59.188Z,90.08
2023-05-16T06:56:00.905Z,89.75
2023-05-16T06:57:03.988Z,88.26
2023-05-16T06:58:05.757Z,86.84
2023-05-16T06:59:07.371Z,87.39
2023-05-16T07:00:09.430Z,87.68
2023-05-16T07:01:11.084Z,87.55
2023-05-16T07:02:12.751Z,88.34
2023-05-16T07:03:14.477Z,90.27
2023-05-16T07:04:16.511Z,87.60
2023-05-16T07:05:18.280Z,85.93
2023-05-16T07:06:19.977Z,86.58
2023-05-16T07:07:21.627Z,87.78
2023-05-16T07:08:23.220Z,87.36
2023-05-16T07:09:24.817Z,88.58
2023-05-16T07:10:27.323Z,87.87
2023-05-16T07:11:28.812Z,86.99
2023-05-16T07:12:31.327Z,90.36
2023-05-16T07:13:35.099Z,86.29
2023-05-16T07:14:37.551Z,87.59
2023-05-16T07:15:39.205Z,85.82
2023-05-16T07:16:40.864Z,87.43
2023-05-16T07:17:42.660Z,86.97
2023-05-16T07:18:44.386Z,86.82
2023-05-16T07:19:46.095Z,85.87
2023-05-16T07:20:48.465Z,85.00
2023-05-16T07:21:50.122Z,88.27
2023-05-16T07:22:51.795Z,86.68
2023-05-16T07:23:53.398Z,87.45
2023-05-16T07:24:57.190Z,87.83
2023-05-16T07:25:59.136Z,88.30
2023-05-16T07:27:00.751Z,87.68
2023-05-16T07:28:02.660Z,88.01
2023-05-16T07:29:04.481Z,87.53
2023-05-16T07:30:06.537Z,86.70
2023-05-16T07:31:08.389Z,88.14
2023-05-16T07:32:10.076Z,88.11
2023-05-16T07:33:11.806Z,89.85
2023-05-16T07:34:13.441Z,86.31
2023-05-16T07:35:16.471Z,87.76
2023-05-16T07:36:18.124Z,85.66
2023-05-16T07:37:20.588Z,88.41
2023-05-16T07:38:22.578Z,85.75
2023-05-16T07:39:24.320Z,85.12
2023-05-16T07:40:29.187Z,84.96
2023-05-16T07:41:31.027Z,85.60
2023-05-16T07:42:32.856Z,84.40
2023-05-16T07:43:37.319Z,84.10
2023-05-16T07:44:38.941Z,84.30
2023-05-16T07:45:40.678Z,83.61
2023-05-16T07:46:45.017Z,84.22
2023-05-16T07:47:47.033Z,84.47
2023-05-16T07:48:48.738Z,83.45
2023-05-16T07:49:50.516Z,84.27
2023-05-16T07:50:53.833Z,83.01
2023-05-16T07:51:57.206Z,83.88
2023-05-16T07:52:58.821Z,82.76
2023-05-16T07:54:00.652Z,83.61
2023-05-16T07:55:07.030Z,83.89
2023-05-16T07:56:08.815Z,81.36
2023-05-16T07:57:10.791Z,81.41
2023-05-16T07:58:12.593Z,81.49
2023-05-16T07:59:14.263Z,81.25
2023-05-16T08:00:16.846Z,80.73
2023-05-16T08:01:18.532Z,81.04
2023-05-16T08:02:20.571Z,80.51
2023-05-16T08:03:22.601Z,81.44
2023-05-16T08:04:24.340Z,80.50
2023-05-16T08:05:26.259Z,81.06
2023-05-16T08:06:28.029Z,79.64
2023-05-16T08:07:29.683Z,79.73
2023-05-16T08:08:31.331Z,79.36
2023-05-16T08:09:33.273Z,77.83
2023-05-16T08:10:34.908Z,77.30
2023-05-16T08:11:37.051Z,78.28
2023-05-16T08:12:38.692Z,78.78
2023-05-16T08:13:40.364Z,78.17
2023-05-16T08:14:42.031Z,80.06
2023-05-16T08:15:44.954Z,78.98
2023-05-16T08:16:46.667Z,77.95
2023-05-16T08:17:48.338Z,78.34
2023-05-16T08:18:50.125Z,79.20
2023-05-16T08:19:51.787Z,77.21
2023-05-16T08:20:53.423Z,77.43
2023-05-16T08:21:55.131Z,77.64
2023-05-16T08:22:56.734Z,77.44
2023-05-16T08:23:58.411Z,77.89
2023-05-16T08:25:00.673Z,77.24
2023-05-16T08:26:03.103Z,76.83
2023-05-16T08:27:04.775Z,77.43
2023-05-16T08:28:06.414Z,77.50
2023-05-16T08:29:08.427Z,78.29
2023-05-16T08:30:11.974Z,78.38
2023-05-16T08:31:13.612Z,78.18
2023-05-16T08:32:15.978Z,76.97
2023-05-16T08:33:17.644Z,78.29
2023-05-16T08:34:19.249Z,78.15
2023-05-16T08:35:21.060Z,79.17
2023-05-16T08:36:22.798Z,78.61
2023-05-16T08:37:24.545Z,80.99
2023-05-16T08:38:26.120Z,80.72
2023-05-16T08:39:27.766Z,79.18
2023-05-16T08:40:29.849Z,78.27
2023-05-16T08:41:31.485Z,79.16
2023-05-16T08:42:34.102Z,79.64
2023-05-16T08:43:36.706Z,78.57
2023-05-16T08:44:38.462Z,77.74
2023-05-16T08:45:41.711Z,78.30
2023-05-16T08:46:44.712Z,78.85
2023-05-16T08:47:48.643Z,78.20
2023-05-16T08:48:53.216Z,77.34
2023-05-16T08:49:57.301Z,77.83
2023-05-16T08:51:03.437Z,77.10
2023-05-16T08:52:10.698Z,76.25
2023-05-16T08:53:15.042Z,76.18
2023-05-16T08:54:17.108Z,77.22
2023-05-16T08:55:20.775Z,77.62
2023-05-16T08:56:23.422Z,76.04
2023-05-16T08:57:26.549Z,77.97
2023-05-16T08:58:30.068Z,76.88
2023-05-16T08:59:31.706Z,77.69
2023-05-16T09:00:33.459Z,78.41
2023-05-16T09:01:35.328Z,77.96
2023-05-16T09:02:39.047Z,76.47
2023-05-16T09:03:41.046Z,75.78
2023-05-16T09:04:43.341Z,76.72
2023-05-16T09:05:45.237Z,75.98
2023-05-16T09:06:47.317Z,75.92
2023-05-16T09:07:48.912Z,78.21
2023-05-16T09:08:50.720Z,78.64
2023-05-16T09:09:52.438Z,78.75
2023-05-16T09:10:54.094Z,79.07
2023-05-16T09:11:56.516Z,77.29
2023-05-16T09:12:58.014Z,78.72
2023-05-16T09:13:59.636Z,78.73
2023-05-16T09:15:05.510Z,77.72
2023-05-16T09:16:33.112Z,76.00
2023-05-16T09:17:42.555Z,75.82
2023-05-16T09:18:46.696Z,76.19
2023-05-16T09:19:52.762Z,75.97
2023-05-16T09:20:54.514Z,77.15
2023-05-16T09:21:56.168Z,76.87
2023-05-16T09:22:59.466Z,76.18
2023-05-16T09:24:08.337Z,76.07
2023-05-16T09:26:20.695Z,76.09
2023-05-16T09:27:22.353Z,75.70
2023-05-16T09:28:26.005Z,75.78
2023-05-16T09:29:27.875Z,77.31
2023-05-16T09:30:32.087Z,76.49
2023-05-16T09:31:38.359Z,76.99
2023-05-16T09:32:44.039Z,79.43
2023-05-16T09:33:45.722Z,78.53
2023-05-16T09:34:49.304Z,78.28
2023-05-16T09:36:01.032Z,76.81
2023-05-16T09:37:02.723Z,78.99
2023-05-16T09:38:04.604Z,79.38
2023-05-16T09:39:07.292Z,76.51
2023-05-16T09:40:10.487Z,77.94
2023-05-16T09:41:12.212Z,80.47
2023-05-16T09:42:14.959Z,80.40
2023-05-16T09:43:17.669Z,80.14
2023-05-16T09:44:19.766Z,80.56
2023-05-16T09:45:21.947Z,80.37
2023-05-16T09:46:27.530Z,80.22
2023-05-16T09:47:29.296Z,82.12
2023-05-16T09:48:32.346Z,80.62
2023-05-16T09:49:34.021Z,80.16
2023-05-16T09:50:36.984Z,79.49
2023-05-16T09:51:39.313Z,80.59
2023-05-16T09:52:41.553Z,78.59
2023-05-16T09:53:43.600Z,79.89
2023-05-16T09:54:46.744Z,81.67
2023-05-16T09:55:48.363Z,82.70
2023-05-16T09:56:51.535Z,80.64
2023-05-16T09:57:53.258Z,79.08
2023-05-16T09:58:54.892Z,80.44
2023-05-16T10:00:01.569Z,81.28
2023-05-16T10:01:03.969Z,82.68
2023-05-16T10:02:06.198Z,82.25
2023-05-16T10:03:08.252Z,80.93
2023-05-16T10:04:14.120Z,81.55
2023-05-16T10:05:17.702Z,81.27
2023-05-16T10:06:19.319Z,79.90
2023-05-16T10:07:21.807Z,81.34
2023-05-16T10:08:24.159Z,80.82
2023-05-16T10:09:26.066Z,80.23
2023-05-16T10:10:28.548Z,79.51
2023-05-16T10:11:30.653Z,78.20
2023-05-16T10:12:33.212Z,78.72
2023-05-16T10:13:36.452Z,79.64
2023-05-16T10:14:39.262Z,78.49
2023-05-16T10:15:41.332Z,79.14
2023-05-16T10:16:44.085Z,81.77
2023-05-16T10:17:51.330Z,81.80
2023-05-16T10:18:53.600Z,80.30
2023-05-16T10:19:55.719Z,80.97
2023-05-16T10:21:11.235Z,81.54
2023-05-16T10:22:13.726Z,80.89
2023-05-16T10:23:20.130Z,78.17
2023-05-16T10:24:29.828Z,78.62
2023-05-16T10:25:41.345Z,79.84
2023-05-16T10:26:43.032Z,80.98
2023-05-16T10:27:44.924Z,80.77
2023-05-16T10:28:47.128Z,81.94
2023-05-16T10:29:54.668Z,82.05
2023-05-16T10:30:57.295Z,81.40
2023-05-16T10:31:59.671Z,81.00
2023-05-16T10:33:01.705Z,79.55
2023-05-16T10:34:03.724Z,81.13
2023-05-16T10:35:05.792Z,80.43
2023-05-16T10:36:10.880Z,79.81
2023-05-16T10:37:12.503Z,80.93
2023-05-16T10:38:17.684Z,79.61
2023-05-16T10:39:19.586Z,80.04
2023-05-16T10:40:22.174Z,80.71
2023-05-16T10:41:23.950Z,79.86
2023-05-16T10:42:25.697Z,78.54
2023-05-16T10:43:30.414Z,77.70
2023-05-16T10:44:33.866Z,78.47
2023-05-16T10:45:40.388Z,77.12
2023-05-16T10:46:42.389Z,78.07
2023-05-16T10:48:09.714Z,78.95
2023-05-16T10:49:26.464Z,79.85
2023-05-16T10:50:36.792Z,79.84
2023-05-16T10:51:39.007Z,80.92
2023-05-16T10:52:40.742Z,80.01
2023-05-16T10:53:53.750Z,80.48
2023-05-16T10:55:02.804Z,81.14
2023-05-16T10:56:04.434Z,81.99
2023-05-16T10:57:17.768Z,83.63
2023-05-16T10:58:24.453Z,82.70
2023-05-16T10:59:28.391Z,86.03
2023-05-16T11:00:30.621Z,86.91
2023-05-16T11:01:32.315Z,88.35
2023-05-16T11:02:41.097Z,89.21
2023-05-16T11:04:10.356Z,88.88
2023-05-16T11:05:17.688Z,89.87
2023-05-16T11:06:23.582Z,90.29
2023-05-16T11:07:33.257Z,91.54
2023-05-16T11:08:35.017Z,90.47
2023-05-16T11:09:37.074Z,91.11
2023-05-16T11:10:39.202Z,93.35
2023-05-16T11:11:40.846Z,93.08
2023-05-16T11:12:48.671Z,92.06
2023-05-16T11:13:56.467Z,93.00
2023-05-16T11:15:03.706Z,88.26
2023-05-16T11:16:30.005Z,89.63
2023-05-16T11:17:41.399Z,89.03
2023-05-16T11:18:50.718Z,89.13
2023-05-16T11:19:57.087Z,90.01
2023-05-16T11:21:03.941Z,90.31
2023-05-16T11:22:10.409Z,91.06
2023-05-16T11:23:22.274Z,88.27
2023-05-16T11:24:31.132Z,88.15
2023-05-16T11:25:41.096Z,89.12
2023-05-16T11:26:43.244Z,89.87
2023-05-16T11:27:46.593Z,91.57
2023-05-16T11:28:51.882Z,89.01
2023-05-16T11:30:03.689Z,89.43
2023-05-16T11:31:07.794Z,90.94
2023-05-16T11:32:09.422Z,90.99
2023-05-16T11:33:12.941Z,89.68
2023-05-16T11:34:14.635Z,90.97
2023-05-16T11:35:17.827Z,88.63
2023-05-16T11:36:19.471Z,87.23
2023-05-16T11:37:21.287Z,89.53
2023-05-16T11:38:23.262Z,87.43
2023-05-16T11:39:25.302Z,85.42
2023-05-16T11:40:27.073Z,82.93
2023-05-16T11:41:28.716Z,83.00
2023-05-16T11:42:36.319Z,83.33
2023-05-16T11:43:45.763Z,83.20
2023-05-16T11:44:47.410Z,87.23
2023-05-16T11:45:54.510Z,88.24
2023-05-16T11:47:00.522Z,87.03
2023-05-16T11:48:06.399Z,89.66
2023-05-16T11:49:09.593Z,90.20
2023-05-16T11:50:13.823Z,87.68
2023-05-16T11:51:18.990Z,89.30
2023-05-16T11:52:21.582Z,87.65
2023-05-16T11:53:23.384Z,87.92
2023-05-16T11:54:25.615Z,86.70
2023-05-16T11:56:37.932Z,87.27
2023-05-16T11:57:39.587Z,88.02
2023-05-16T11:58:42.235Z,87.84
2023-05-16T11:59:44.480Z,89.19
2023-05-16T12:00:50.269Z,84.91
2023-05-16T12:01:52.101Z,82.27
2023-05-16T12:02:55.001Z,81.18
2023-05-16T12:04:00.247Z,82.83
2023-05-16T12:05:09.778Z,85.60
2023-05-16T12:06:11.776Z,84.22
2023-05-16T12:07:13.399Z,84.56
2023-05-16T12:08:16.568Z,83.24
2023-05-16T12:09:18.620Z,86.88
2023-05-16T12:10:20.334Z,85.05
2023-05-16T12:11:23.739Z,84.03
2023-05-16T12:12:25.542Z,82.25
2023-05-16T12:13:27.371Z,83.55
2023-05-16T12:14:29.155Z,82.19
2023-05-16T12:15:31.190Z,81.59
2023-05-16T12:16:33.787Z,80.81
2023-05-16T12:17:39.817Z,82.75
2023-05-16T12:18:43.509Z,82.61
2023-05-16T12:19:46.448Z,86.48
2023-05-16T12:20:48.225Z,83.60
2023-05-16T12:21:53.718Z,84.25
2023-05-16T12:22:58.086Z,84.71
2023-05-16T12:24:00.084Z,86.46
2023-05-16T12:25:32.101Z,87.59
2023-05-16T12:26:34.305Z,85.36
2023-05-16T12:27:36.326Z,85.54
2023-05-16T12:28:39.449Z,88.29
2023-05-16T12:29:47.754Z,86.60
2023-05-16T12:30:49.447Z,85.81
2023-05-16T12:31:53.599Z,85.87
2023-05-16T12:33:04.206Z,86.17
2023-05-16T12:34:18.017Z,86.36
2023-05-16T12:35:19.652Z,85.09
2023-05-16T12:36:21.871Z,84.13
2023-05-16T12:37:23.629Z,85.33
2023-05-16T12:38:26.660Z,85.91
2023-05-16T12:39:37.639Z,86.92
2023-05-16T12:40:41.625Z,87.43
2023-05-16T12:41:43.571Z,86.19
2023-05-16T12:42:45.276Z,84.32
2023-05-16T12:43:47.460Z,83.67
2023-05-16T12:44:49.188Z,85.79
2023-05-16T12:45:53.199Z,85.36
2023-05-16T12:46:55.248Z,84.65
2023-05-16T12:47:57.114Z,85.13
2023-05-16T12:49:05.532Z,85.36
2023-05-16T12:50:14.681Z,86.50
2023-05-16T12:51:18.840Z,87.25
2023-05-16T12:52:21.504Z,88.86
2023-05-16T12:53:23.133Z,86.59
2023-05-16T12:54:25.488Z,86.75
2023-05-16T12:55:27.385Z,86.68
2023-05-16T12:56:29.031Z,87.86
2023-05-16T12:57:31.236Z,87.87
2023-05-16T12:58:34.161Z,88.39
2023-05-16T12:59:35.785Z,88.57
2023-05-16T13:00:37.864Z,89.23
2023-05-16T13:01:40.788Z,89.69
2023-05-16T13:02:42.507Z,88.59
2023-05-16T13:03:44.531Z,89.81
2023-05-16T13:04:46.253Z,91.04
2023-05-16T13:05:47.889Z,91.04
2023-05-16T13:06:59.323Z,91.05
2023-05-16T13:08:02.612Z,91.97
2023-05-16T13:09:05.140Z,91.69
2023-05-16T13:10:07.850Z,91.94
2023-05-16T13:11:09.467Z,91.51
2023-05-16T13:12:11.601Z,92.06
2023-05-16T13:13:22.037Z,92.36
2023-05-16T13:14:30.709Z,92.82
2023-05-16T13:15:32.492Z,94.15
2023-05-16T13:16:34.407Z,92.72
2023-05-16T13:17:37.323Z,94.21
2023-05-16T13:18:39.001Z,92.49
2023-05-16T13:19:41.004Z,91.83
2023-05-16T13:20:43.411Z,92.54
2023-05-16T13:21:45.023Z,93.48
2023-05-16T13:22:46.798Z,94.03
2023-05-16T13:23:48.403Z,92.48
2023-05-16T13:24:50.013Z,92.74
2023-05-16T13:25:53.087Z,92.31
2023-05-16T13:26:54.885Z,94.55
2023-05-16T13:27:56.502Z,91.93